Time;durP1;ratioP1;P1;durP2;ratioP2;P2;SDS_P1;SDS_P2;PMS_P1;PMS_P2;Temp;Humidity;BMP_temperature;BMP_pressure;BME280_temperature;BME280_humidity;BME280_pressure;Samples;Min_cycle;Max_cycle;Signal;HPM_P1;HPM_P2
2021/04/25 00:00:52;;;;;;;7.13;2.80;;;;;;;20.82;46.44;102214.41;2072491;28;20025;-71
2021/04/25 00:01:53;;;;;;;6.35;2.40;;;;;;;20.85;46.31;102219.53;2072401;28;20041;-71
2021/04/25 00:02:53;;;;;;;6.43;2.80;;;;;;;20.83;45.85;102224.28;2072549;28;20062;-71
2021/04/25 00:03:54;;;;;;;10.00;2.58;;;;;;;20.86;46.03;102223.09;2072329;28;20026;-71
2021/04/25 00:04:54;;;;;;;6.47;2.80;;;;;;;20.86;46.07;102226.69;2088189;28;20561;-72
2021/04/25 00:05:55;;;;;;;8.05;3.00;;;;;;;20.84;46.06;102227.88;2087805;28;20033;-71
2021/04/25 00:06:55;;;;;;;3.97;2.25;;;;;;;20.84;46.49;102223.28;2072287;28;20026;-71
2021/04/25 00:07:56;;;;;;;5.72;2.58;;;;;;;20.85;46.83;102222.25;2072333;28;20022;-70
2021/04/25 00:08:57;;;;;;;5.32;2.55;;;;;;;20.85;47.13;102235.00;2072493;28;20041;-71
2021/04/25 00:09:57;;;;;;;6.47;2.28;;;;;;;20.84;46.98;102230.59;2072432;28;20026;-71
2021/04/25 00:11:02;;;;;;;5.13;2.67;;;;;;;20.84;46.73;102239.59;2072484;28;20045;-71
2021/04/25 00:12:03;;;;;;;6.07;2.42;;;;;;;20.84;47.22;102236.03;2072325;28;20057;-71
2021/04/25 00:13:03;;;;;;;5.10;2.40;;;;;;;20.82;47.05;102238.06;2072116;28;20101;-71
2021/04/25 00:14:05;;;;;;;7.43;2.65;;;;;;;20.79;46.86;102233.81;2072410;28;20024;-71
2021/04/25 00:15:06;;;;;;;7.00;2.58;;;;;;;20.81;46.51;102237.22;2072448;28;20404;-71
2021/04/25 00:16:07;;;;;;;5.57;2.28;;;;;;;20.79;47.22;102235.69;2072465;28;20453;-71
2021/04/25 00:17:07;;;;;;;5.25;2.75;;;;;;;20.79;46.06;102232.97;2072461;28;20058;-71
2021/04/25 00:18:08;;;;;;;5.22;2.25;;;;;;;20.80;46.17;102231.94;2072466;28;20044;-71
2021/04/25 00:19:09;;;;;;;5.68;2.38;;;;;;;20.79;46.74;102236.53;2072429;28;20492;-71
2021/04/25 00:20:11;;;;;;;5.90;2.50;;;;;;;20.78;47.13;102244.91;2072247;28;20397;-71
2021/04/25 00:21:12;;;;;;;7.10;2.70;;;;;;;20.80;46.26;102242.81;2072151;28;20093;-71
2021/04/25 00:22:12;;;;;;;4.72;2.30;;;;;;;20.80;46.18;102246.41;2072379;28;20014;-71
2021/04/25 00:23:12;;;;;;;7.10;2.63;;;;;;;20.81;46.16;102237.22;2072447;28;20026;-71
2021/04/25 00:24:13;;;;;;;5.93;2.90;;;;;;;20.79;45.76;102238.41;2072239;28;20042;-71
2021/04/25 00:25:15;;;;;;;6.32;2.67;;;;;;;20.80;45.77;102242.81;2072297;28;20022;-71
2021/04/25 00:26:17;;;;;;;7.40;2.50;;;;;;;20.83;45.82;102239.78;2072411;28;20393;-72
2021/04/25 00:27:17;;;;;;;8.15;2.92;;;;;;;20.82;45.97;102247.09;2072393;28;20041;-71
2021/04/25 00:28:18;;;;;;;7.35;2.63;;;;;;;20.83;45.80;102248.78;2072032;28;20029;-71
2021/04/25 00:29:18;;;;;;;7.15;2.63;;;;;;;20.80;45.82;102240.97;2072486;28;20453;-71
2021/04/25 00:30:21;;;;;;;6.82;2.60;;;;;;;20.83;46.02;102254.22;2072349;28;20485;-71
2021/04/25 00:31:21;;;;;;;4.57;2.55;;;;;;;20.82;46.16;102251.69;2072375;28;20029;-71
2021/04/25 00:32:22;;;;;;;5.85;2.63;;;;;;;20.81;46.18;102244.53;2072314;28;20462;-71
2021/04/25 00:33:22;;;;;;;7.25;2.50;;;;;;;20.83;45.81;102246.06;2072324;28;20038;-71
2021/04/25 00:34:23;;;;;;;7.40;2.80;;;;;;;20.82;45.63;102244.38;2072222;28;20053;-71
2021/04/25 00:35:23;;;;;;;5.53;3.22;;;;;;;20.79;45.29;102244.69;2072055;28;20030;-71
2021/04/25 00:36:24;;;;;;;6.15;3.03;;;;;;;20.76;45.45;102250.50;2071973;28;20034;-71
2021/04/25 00:37:24;;;;;;;8.43;3.10;;;;;;;20.77;44.99;102248.63;2072444;28;20566;-71
2021/04/25 00:38:25;;;;;;;10.15;3.20;;;;;;;20.79;44.89;102246.56;2072249;28;20034;-71
2021/04/25 00:39:25;;;;;;;10.15;3.30;;;;;;;20.77;45.09;102249.50;2072520;28;20057;-71
2021/04/25 00:40:26;;;;;;;7.20;2.95;;;;;;;20.77;44.43;102248.63;2072243;28;20041;-72
2021/04/25 00:41:26;;;;;;;7.82;3.45;;;;;;;20.75;44.35;102242.50;2072404;28;20029;-71
2021/04/25 00:42:28;;;;;;;9.75;3.33;;;;;;;20.76;44.43;102241.50;2071954;28;20053;-71
2021/04/25 00:43:28;;;;;;;7.75;3.20;;;;;;;20.73;44.38;102247.28;2073109;28;20038;-71
2021/04/25 00:44:29;;;;;;;7.57;3.40;;;;;;;20.72;44.24;102251.00;2069350;28;20080;-71
2021/04/25 00:45:29;;;;;;;8.10;3.75;;;;;;;20.68;43.99;102242.31;2073956;28;20030;-71
2021/04/25 00:46:30;;;;;;;9.38;3.75;;;;;;;20.64;44.29;102249.13;2073753;28;20030;-71
2021/04/25 00:47:30;;;;;;;7.25;3.67;;;;;;;20.66;44.28;102247.09;2073959;28;20057;-71
2021/04/25 00:48:31;;;;;;;8.18;3.50;;;;;;;20.67;44.25;102246.06;2073682;28;20057;-70
2021/04/25 00:49:32;;;;;;;8.20;3.58;;;;;;;20.65;44.70;102244.53;2074110;28;20064;-70
2021/04/25 00:50:33;;;;;;;6.63;3.25;;;;;;;20.65;44.34;102239.09;2072773;28;20033;-71
2021/04/25 00:51:34;;;;;;;9.57;3.83;;;;;;;20.64;44.49;102240.09;2072919;28;20038;-70
2021/04/25 00:52:43;;;;;;;7.82;3.50;;;;;;;20.67;44.79;102231.59;2073097;28;20495;-71
2021/04/25 00:53:44;;;;;;;10.60;3.50;;;;;;;20.71;44.59;102235.69;2072338;28;20053;-72
2021/04/25 00:54:45;;;;;;;10.20;3.75;;;;;;;20.69;44.77;102238.59;2072591;28;20227;-72
2021/04/25 00:55:46;;;;;;;8.63;3.55;;;;;;;20.70;44.80;102232.13;2073905;28;20551;-71
2021/04/25 00:56:47;;;;;;;8.98;3.78;;;;;;;20.71;44.95;102235.69;2073632;28;20033;-71
2021/04/25 00:57:48;;;;;;;7.65;3.53;;;;;;;20.73;45.42;102239.09;2073606;28;20077;-71
2021/04/25 00:58:49;;;;;;;7.97;3.50;;;;;;;20.71;45.02;102232.97;2073628;28;20105;-70
2021/04/25 00:59:53;;;;;;;7.43;3.58;;;;;;;20.70;44.66;102239.44;2073799;28;20079;-70
2021/04/25 01:00:54;;;;;;;9.07;3.65;;;;;;;20.67;45.04;102235.19;2073778;28;20026;-73
2021/04/25 01:01:54;;;;;;;7.65;3.63;;;;;;;20.69;45.08;102243.19;2073705;28;20474;-71
2021/04/25 01:02:55;;;;;;;6.15;3.63;;;;;;;20.67;44.83;102235.19;2073716;28;20113;-71
2021/04/25 01:03:56;;;;;;;9.98;3.97;;;;;;;20.66;44.62;102243.50;2073651;28;20375;-72
2021/04/25 01:04:57;;;;;;;8.35;3.90;;;;;;;20.65;44.83;102250.81;2073372;28;20033;-70
2021/04/25 01:05:57;;;;;;;8.05;3.72;;;;;;;20.65;45.01;102250.81;2073455;28;20512;-70
2021/04/25 01:06:58;;;;;;;7.60;3.47;;;;;;;20.67;45.21;102248.78;2089438;28;20553;-71
2021/04/25 01:07:59;;;;;;;8.70;3.70;;;;;;;20.66;45.12;102251.69;2089404;28;20082;-71
2021/04/25 01:08:59;;;;;;;14.05;3.30;;;;;;;20.65;45.08;102250.81;2073704;28;20512;-71
2021/04/25 01:10:02;;;;;;;8.23;3.55;;;;;;;20.66;44.96;102252.53;2073649;28;20394;-72
2021/04/25 01:11:03;;;;;;;10.95;4.03;;;;;;;20.64;45.13;102253.72;2073590;28;20033;-71
2021/04/25 01:12:04;;;;;;;8.52;3.97;;;;;;;20.65;45.22;102253.53;2073181;28;20497;-74
2021/04/25 01:13:04;;;;;;;9.80;3.88;;;;;;;20.65;45.04;102247.25;2073633;28;20040;-71
2021/04/25 01:14:05;;;;;;;9.77;3.67;;;;;;;20.63;45.11;102249.28;2073647;28;20434;-70
2021/04/25 01:15:07;;;;;;;7.50;3.72;;;;;;;20.67;45.34;102251.50;2073586;28;20026;-70
2021/04/25 01:16:08;;;;;;;11.77;3.60;;;;;;;20.70;45.07;102242.16;2073542;28;20048;-71
2021/04/25 01:17:08;;;;;;;8.88;3.50;;;;;;;20.71;45.29;102252.88;2073652;28;20025;-71
2021/04/25 01:18:09;;;;;;;9.05;3.45;;;;;;;20.71;45.35;102238.41;2073511;28;20389;-70
2021/04/25 01:19:09;;;;;;;8.95;3.90;;;;;;;20.70;45.15;102234.00;2073699;28;20037;-71
2021/04/25 01:20:13;;;;;;;7.07;3.55;;;;;;;20.68;45.44;102241.47;2073124;28;20034;-71
2021/04/25 01:21:13;;;;;;;9.77;3.50;;;;;;;20.70;45.59;102237.56;2073389;28;20401;-72
2021/04/25 01:22:14;;;;;;;8.32;3.90;;;;;;;20.68;45.56;102234.16;2073560;28;20097;-71
2021/04/25 01:23:14;;;;;;;7.78;3.58;;;;;;;20.70;45.66;102240.28;2073699;28;20491;-71
2021/04/25 01:24:15;;;;;;;7.72;3.65;;;;;;;20.67;45.38;102237.06;2073313;28;20450;-71
2021/04/25 01:25:19;;;;;;;11.05;3.72;;;;;;;20.70;45.64;102236.72;2073757;28;20037;-71
2021/04/25 01:26:20;;;;;;;7.30;3.53;;;;;;;20.68;45.54;102239.59;2073461;28;20030;-72
2021/04/25 01:27:20;;;;;;;8.70;3.78;;;;;;;20.70;45.53;102240.28;2073338;28;20473;-72
2021/04/25 01:28:21;;;;;;;7.88;3.45;;;;;;;20.68;45.74;102244.19;2073384;28;20088;-72
2021/04/25 01:29:22;;;;;;;6.35;3.28;;;;;;;20.67;45.71;102245.22;2073647;28;20033;-74
2021/04/25 01:30:29;;;;;;;9.13;3.63;;;;;;;20.68;45.49;102236.88;2073372;28;20061;-71
2021/04/25 01:31:30;;;;;;;10.02;3.83;;;;;;;20.67;45.32;102242.50;2073626;28;20034;-72
2021/04/25 01:32:31;;;;;;;6.65;3.70;;;;;;;20.68;45.71;102236.03;2073427;28;20125;-70
2021/04/25 01:33:33;;;;;;;10.68;3.50;;;;;;;20.65;45.60;102231.78;2073593;28;20018;-71
2021/04/25 01:34:34;;;;;;;8.43;4.00;;;;;;;20.67;45.73;102237.06;2073057;28;20509;-71
2021/04/25 01:35:35;;;;;;;13.57;3.83;;;;;;;20.72;46.31;102232.81;2073515;28;20034;-72
2021/04/25 01:36:35;;;;;;;10.05;3.30;;;;;;;20.48;44.59;102230.91;2072983;28;20029;-71
2021/04/25 01:37:36;;;;;;;7.90;3.35;;;;;;;20.18;44.68;102239.66;2089359;28;20037;-72
2021/04/25 01:38:36;;;;;;;12.35;3.38;;;;;;;20.27;44.39;102237.81;2088996;28;20025;-73
2021/04/25 01:39:37;;;;;;;9.23;2.97;;;;;;;20.43;44.11;102235.16;2073497;28;20068;-71
2021/04/25 01:40:37;;;;;;;10.30;3.30;;;;;;;20.53;43.80;102234.00;2073285;28;20033;-71
2021/04/25 01:41:38;;;;;;;13.80;3.63;;;;;;;20.65;44.41;102233.66;2073143;28;20018;-71
2021/04/25 01:42:39;;;;;;;8.02;2.97;;;;;;;20.70;44.63;102236.72;2073214;28;20073;-72
2021/04/25 01:43:39;;;;;;;8.30;3.28;;;;;;;20.73;44.72;102236.38;2073381;28;20053;-72
2021/04/25 01:44:40;;;;;;;9.43;3.03;;;;;;;20.78;44.96;102236.72;2073262;28;20030;-72
2021/04/25 01:45:40;;;;;;;9.68;3.70;;;;;;;20.81;44.84;102239.94;2073408;28;20420;-72
2021/04/25 01:46:41;;;;;;;13.13;3.88;;;;;;;20.82;44.76;102230.75;2073272;28;20030;-73
2021/04/25 01:47:46;;;;;;;8.18;3.45;;;;;;;20.81;44.97;102239.94;2073414;28;20472;-72
2021/04/25 01:48:47;;;;;;;7.82;3.72;;;;;;;20.81;44.96;102241.81;2073215;28;20500;-71
2021/04/25 01:49:47;;;;;;;9.10;3.50;;;;;;;20.81;44.84;102239.09;2072907;28;20038;-71
2021/04/25 01:50:48;;;;;;;9.82;3.55;;;;;;;20.84;45.01;102241.47;2073270;28;20029;-71
2021/04/25 01:51:48;;;;;;;7.65;3.60;;;;;;;20.85;44.98;102229.56;2088700;28;20048;-71
2021/04/25 01:52:50;;;;;;;8.07;3.42;;;;;;;20.85;44.96;102241.31;2088950;28;20655;-72
2021/04/25 01:53:50;;;;;;;8.43;3.65;;;;;;;20.86;45.04;102243.00;2087896;28;20021;-74
2021/04/25 01:54:51;;;;;;;15.73;3.92;;;;;;;20.93;44.99;102239.63;2089038;28;20024;-71
2021/04/25 01:55:51;;;;;;;8.55;3.70;;;;;;;20.97;45.01;102235.53;2073079;28;20129;-71
2021/04/25 01:56:52;;;;;;;8.02;3.53;;;;;;;20.95;45.29;102238.44;2073012;28;20018;-71
2021/04/25 01:57:53;;;;;;;12.95;4.03;;;;;;;20.95;45.16;102240.28;2072583;28;20075;-70
2021/04/25 01:58:53;;;;;;;9.55;3.95;;;;;;;20.94;45.02;102236.72;2072555;28;20038;-71
2021/04/25 01:59:54;;;;;;;7.72;3.83;;;;;;;20.86;44.71;102242.16;2073294;28;20045;-71
2021/04/25 02:00:55;;;;;;;9.77;4.15;;;;;;;20.81;44.62;102239.94;2073267;28;20029;-71
2021/04/25 02:01:56;;;;;;;9.38;4.47;;;;;;;20.78;44.97;102240.31;2073187;28;20389;-70
2021/04/25 02:02:57;;;;;;;11.43;4.88;;;;;;;20.76;44.89;102244.22;2073211;28;20073;-70
2021/04/25 02:03:57;;;;;;;11.55;4.30;;;;;;;20.74;44.64;102241.66;2072890;28;20401;-70
2021/04/25 02:04:58;;;;;;;7.85;4.30;;;;;;;20.74;45.07;102241.66;2073250;28;20045;-70
2021/04/25 02:05:58;;;;;;;16.02;4.72;;;;;;;20.71;44.92;102236.56;2072752;28;20531;-70
2021/04/25 02:06:59;;;;;;;10.73;4.35;;;;;;;20.69;45.09;102241.31;2073199;28;20136;-70
2021/04/25 02:08:00;;;;;;;11.13;5.00;;;;;;;20.65;45.14;102245.38;2072384;28;20034;-70
2021/04/25 02:09:00;;;;;;;9.90;4.47;;;;;;;20.65;44.89;102244.53;2072707;28;20034;-70
2021/04/25 02:10:03;;;;;;;10.10;4.45;;;;;;;20.63;45.08;102239.25;2073124;28;20046;-70
2021/04/25 02:11:04;;;;;;;10.23;5.00;;;;;;;20.61;44.91;102245.88;2073308;28;20037;-71
2021/04/25 02:12:05;;;;;;;10.10;5.13;;;;;;;20.60;45.01;102236.88;2072754;28;20473;-70
2021/04/25 02:13:06;;;;;;;10.73;4.35;;;;;;;20.63;44.98;102246.56;2073269;28;20034;-70
2021/04/25 02:14:08;;;;;;;8.57;4.25;;;;;;;20.64;45.18;102245.56;2073055;28;20084;-70
2021/04/25 02:15:09;;;;;;;11.35;4.35;;;;;;;20.63;45.17;102244.69;2073204;28;20026;-72
2021/04/25 02:16:09;;;;;;;8.75;4.93;;;;;;;20.61;45.34;102249.44;2072913;28;20436;-72
2021/04/25 02:17:10;;;;;;;11.93;4.93;;;;;;;20.60;44.90;102246.91;2072453;28;20034;-70
2021/04/25 02:18:11;;;;;;;11.18;5.00;;;;;;;20.58;45.03;102249.78;2072325;28;20041;-70
2021/04/25 02:19:12;;;;;;;10.60;5.18;;;;;;;20.54;45.00;102251.16;2072862;28;20561;-69
2021/04/25 02:20:15;;;;;;;11.70;5.22;;;;;;;20.53;44.76;102244.88;2072947;28;20033;-69
2021/04/25 02:21:16;;;;;;;9.15;5.18;;;;;;;20.52;44.92;102240.44;2072974;28;20094;-70
2021/04/25 02:22:16;;;;;;;10.43;5.13;;;;;;;20.49;44.75;102246.22;2073014;28;20114;-69
2021/04/25 02:23:17;;;;;;;9.65;4.95;;;;;;;20.49;44.87;102248.94;2073103;28;20061;-70
2021/04/25 02:24:17;;;;;;;9.15;4.80;;;;;;;20.52;45.05;102245.88;2072815;28;20034;-70
2021/04/25 02:25:19;;;;;;;9.90;4.82;;;;;;;20.52;45.01;102250.47;2073169;28;20018;-70
2021/04/25 02:26:20;;;;;;;9.65;5.00;;;;;;;20.53;44.90;102244.03;2072541;28;20048;-70
2021/04/25 02:27:21;;;;;;;8.15;4.47;;;;;;;20.53;45.22;102247.59;2073123;28;20100;-69
2021/04/25 02:28:21;;;;;;;11.00;5.65;;;;;;;20.50;45.00;102247.06;2072825;28;20040;-69
2021/04/25 02:29:22;;;;;;;14.15;5.80;;;;;;;20.49;44.79;102246.22;2073067;28;20466;-70
2021/04/25 02:30:25;;;;;;;12.20;5.68;;;;;;;20.52;45.07;102250.47;2072938;28;20069;-71
2021/04/25 02:31:26;;;;;;;11.07;5.55;;;;;;;20.53;44.92;102246.75;2073108;28;20029;-72
2021/04/25 02:32:27;;;;;;;10.38;5.18;;;;;;;20.51;45.32;102241.47;2072881;28;20034;-71
2021/04/25 02:33:27;;;;;;;11.75;5.68;;;;;;;20.49;45.16;102254.38;2072771;28;20114;-71
2021/04/25 02:34:28;;;;;;;11.20;5.55;;;;;;;20.48;45.06;102252.69;2072955;28;20022;-71
2021/04/25 02:35:30;;;;;;;10.85;4.90;;;;;;;20.50;45.29;102249.78;2073015;28;20033;-73
2021/04/25 02:36:31;;;;;;;10.10;5.22;;;;;;;20.53;45.25;102247.59;2072424;28;20493;-74
2021/04/25 02:37:32;;;;;;;10.98;5.40;;;;;;;20.53;45.32;102249.47;2073042;28;20037;-74
2021/04/25 02:38:33;;;;;;;13.75;5.32;;;;;;;20.52;45.29;102247.75;2072883;28;20049;-74
2021/04/25 02:39:33;;;;;;;12.10;5.25;;;;;;;20.54;45.24;102240.28;2073062;28;20547;-74
2021/04/25 02:40:35;;;;;;;8.02;5.13;;;;;;;20.55;45.04;102252.03;2072822;28;20084;-74
2021/04/25 02:41:35;;;;;;;9.23;5.43;;;;;;;20.52;45.16;102253.19;2072695;28;20045;-74
2021/04/25 02:42:38;;;;;;;8.30;5.15;;;;;;;20.51;45.19;102248.78;2072786;28;20116;-73
2021/04/25 02:43:38;;;;;;;9.57;5.50;;;;;;;20.50;45.31;102253.38;2072855;28;20046;-73
2021/04/25 02:44:39;;;;;;;10.85;5.70;;;;;;;20.51;45.24;102251.50;2072738;28;20074;-74
2021/04/25 02:45:39;;;;;;;9.85;5.78;;;;;;;20.49;45.11;102256.25;2072839;28;20069;-74
2021/04/25 02:46:40;;;;;;;10.45;5.85;;;;;;;20.47;45.11;102250.13;2072116;28;20030;-74
2021/04/25 02:47:51;;;;;;;11.80;5.40;;;;;;;20.50;44.99;102244.34;2072276;28;20045;-73
2021/04/25 02:48:52;;;;;;;11.15;5.70;;;;;;;20.49;45.05;102250.81;2071941;28;20022;-73
2021/04/25 02:49:52;;;;;;;10.20;5.32;;;;;;;20.48;45.40;102249.97;2072780;28;20385;-73
2021/04/25 02:50:53;;;;;;;8.55;5.13;;;;;;;20.49;45.08;102251.66;2072750;28;20084;-73
2021/04/25 02:51:54;;;;;;;12.13;5.65;;;;;;;20.49;45.15;102251.66;2072592;28;20093;-73
2021/04/25 02:52:54;;;;;;;11.13;5.38;;;;;;;20.50;45.44;102249.78;2072863;28;20033;-73
2021/04/25 02:53:55;;;;;;;10.45;5.65;;;;;;;20.49;45.52;102254.38;2066293;28;20030;-73
2021/04/25 02:54:55;;;;;;;8.10;5.15;;;;;;;20.50;45.18;102249.78;2072880;28;20037;-73
2021/04/25 02:55:56;;;;;;;9.23;5.60;;;;;;;20.46;45.09;102253.88;2071881;28;20034;-72
2021/04/25 02:56:56;;;;;;;12.70;6.00;;;;;;;20.45;44.99;102250.28;2072250;28;20580;-71
2021/04/25 02:57:57;;;;;;;9.30;5.30;;;;;;;20.41;45.02;102248.06;2072675;28;20519;-71
2021/04/25 02:58:57;;;;;;;10.38;5.68;;;;;;;20.43;45.24;102249.59;2072946;28;20018;-71
2021/04/25 02:59:58;;;;;;;9.73;5.63;;;;;;;20.45;45.21;102246.72;2072751;28;20485;-70
2021/04/25 03:00:58;;;;;;;11.50;5.72;;;;;;;20.45;45.32;102244.00;2072809;28;20022;-70
2021/04/25 03:01:59;;;;;;;13.32;5.75;;;;;;;20.42;45.05;102245.19;2072641;28;20454;-70
2021/04/25 03:02:59;;;;;;;12.50;6.22;;;;;;;20.37;45.18;102239.38;2072632;28;20112;-70
2021/04/25 03:04:00;;;;;;;11.68;6.38;;;;;;;20.33;45.31;102248.88;2072540;28;20018;-70
2021/04/25 03:05:00;;;;;;;11.75;5.47;;;;;;;20.32;45.06;102252.63;2072245;28;20022;-70
2021/04/25 03:06:01;;;;;;;9.27;5.88;;;;;;;20.31;45.17;102250.91;2072355;28;20060;-70
2021/04/25 03:07:01;;;;;;;9.38;5.30;;;;;;;20.27;45.08;102252.25;2072708;28;20397;-70
2021/04/25 03:08:02;;;;;;;9.70;5.38;;;;;;;20.25;44.99;102245.28;2072628;28;20377;-70
2021/04/25 03:09:03;;;;;;;8.43;5.40;;;;;;;20.24;45.05;102252.59;2072899;28;20036;-70
2021/04/25 03:10:05;;;;;;;11.07;6.15;;;;;;;20.23;45.19;102250.88;2072592;28;20033;-70
2021/04/25 03:11:06;;;;;;;12.70;5.68;;;;;;;20.23;45.10;102250.03;2072537;28;20033;-70
2021/04/25 03:12:07;;;;;;;12.23;5.88;;;;;;;20.23;45.04;102250.88;2072615;28;20555;-70
2021/04/25 03:13:08;;;;;;;10.18;6.03;;;;;;;20.25;45.24;102253.44;2072747;28;20026;-70
2021/04/25 03:14:08;;;;;;;10.80;6.18;;;;;;;20.24;45.20;102251.72;2072599;28;20026;-70
2021/04/25 03:15:11;;;;;;;10.48;6.18;;;;;;;20.27;45.15;102251.41;2072739;28;20037;-70
2021/04/25 03:16:11;;;;;;;10.75;6.05;;;;;;;20.26;45.10;102252.41;2072621;28;20021;-70
2021/04/25 03:17:12;;;;;;;9.15;5.72;;;;;;;20.23;45.24;102258.19;2072794;28;20389;-70
2021/04/25 03:18:12;;;;;;;9.32;5.75;;;;;;;20.18;45.09;102259.53;2072220;28;20444;-69
2021/04/25 03:19:13;;;;;;;13.23;5.93;;;;;;;20.20;45.21;102251.22;2072690;28;20026;-70
2021/04/25 03:20:16;;;;;;;11.73;6.28;;;;;;;20.15;45.04;102253.56;2072586;28;20108;-70
2021/04/25 03:21:16;;;;;;;11.10;6.35;;;;;;;20.11;45.01;102254.94;2072526;28;20062;-70
2021/04/25 03:22:17;;;;;;;11.90;6.32;;;;;;;20.08;44.96;102263.41;2072561;28;20037;-70
2021/04/25 03:23:17;;;;;;;11.75;5.72;;;;;;;20.06;45.02;102260.88;2072618;28;20030;-70
2021/04/25 03:24:19;;;;;;;9.48;6.00;;;;;;;20.03;45.13;102254.91;2072340;28;20045;-70
2021/04/25 03:25:20;;;;;;;9.93;5.90;;;;;;;20.02;45.13;102255.91;2072330;28;20022;-70
2021/04/25 03:26:20;;;;;;;11.90;6.72;;;;;;;19.96;44.92;102253.84;2072545;28;20032;-70
2021/04/25 03:27:21;;;;;;;10.90;5.72;;;;;;;19.95;44.93;102253.00;2072558;28;20379;-70
2021/04/25 03:28:21;;;;;;;13.05;6.00;;;;;;;19.92;44.82;102253.31;2072468;28;20061;-71
2021/04/25 03:29:22;;;;;;;11.25;6.25;;;;;;;19.90;44.92;102255.38;2072658;28;20033;-70
2021/04/25 03:30:22;;;;;;;12.63;6.57;;;;;;;19.87;44.81;102252.97;2072503;28;20121;-71
2021/04/25 03:31:23;;;;;;;12.15;6.43;;;;;;;19.85;44.89;102253.13;2072637;28;20036;-70
2021/04/25 03:32:23;;;;;;;11.30;6.55;;;;;;;19.84;44.91;102253.28;2072476;28;20026;-71
2021/04/25 03:33:24;;;;;;;10.10;6.13;;;;;;;19.80;44.78;102252.75;2072315;28;20048;-71
2021/04/25 03:34:25;;;;;;;14.45;7.05;;;;;;;19.77;44.78;102255.81;2072547;28;20030;-70
2021/04/25 03:35:25;;;;;;;11.35;6.50;;;;;;;19.74;44.53;102258.84;2072522;28;20021;-71
2021/04/25 03:36:25;;;;;;;14.30;6.93;;;;;;;19.71;44.67;102259.16;2072170;28;20037;-70
2021/04/25 03:37:26;;;;;;;11.27;5.90;;;;;;;19.69;44.65;102261.22;2072520;28;20026;-70
2021/04/25 03:38:27;;;;;;;10.65;6.43;;;;;;;19.69;44.60;102263.09;2072515;28;20469;-71
2021/04/25 03:39:27;;;;;;;15.05;7.03;;;;;;;19.70;44.70;102270.22;2072525;28;20037;-71
2021/04/25 03:40:28;;;;;;;10.82;6.47;;;;;;;19.69;44.81;102271.22;2071477;28;20077;-71
2021/04/25 03:41:28;;;;;;;12.68;6.53;;;;;;;19.69;44.77;102260.38;2079948;28;20440;-71
2021/04/25 03:42:29;;;;;;;12.05;5.93;;;;;;;19.67;44.65;102260.53;2082847;28;20041;-71
2021/04/25 03:43:29;;;;;;;12.75;6.63;;;;;;;19.67;44.80;102263.25;2072482;28;20536;-71
2021/04/25 03:44:30;;;;;;;11.48;6.18;;;;;;;19.68;44.75;102267.66;2072515;28;20038;-71
2021/04/25 03:45:30;;;;;;;10.88;6.72;;;;;;;19.67;44.65;102265.97;2072490;28;20045;-71
2021/04/25 03:46:31;;;;;;;11.88;6.68;;;;;;;19.67;44.56;102265.97;2072540;28;20064;-71
2021/04/25 03:47:33;;;;;;;12.25;6.05;;;;;;;19.69;44.78;102269.38;2072186;28;20029;-72
2021/04/25 03:48:33;;;;;;;13.60;6.50;;;;;;;19.71;44.86;102274.63;2072521;28;20065;-71
2021/04/25 03:49:34;;;;;;;12.23;6.10;;;;;;;19.69;44.54;102271.22;2072525;28;20049;-71
2021/04/25 03:50:34;;;;;;;12.57;6.28;;;;;;;19.70;44.70;102275.66;2072516;28;20489;-71
2021/04/25 03:51:36;;;;;;;12.02;6.22;;;;;;;19.68;44.79;102273.09;2072196;28;20050;-71
2021/04/25 03:52:36;;;;;;;10.48;5.90;;;;;;;19.69;44.75;102276.66;2072506;28;20395;-71
2021/04/25 03:53:37;;;;;;;13.00;6.32;;;;;;;19.68;44.83;102270.38;2072479;28;20030;-71
2021/04/25 03:54:38;;;;;;;11.15;5.97;;;;;;;19.68;44.74;102270.38;2072471;28;20034;-71
2021/04/25 03:55:39;;;;;;;12.80;6.05;;;;;;;19.67;44.62;102270.53;2072095;28;20470;-71
2021/04/25 03:56:40;;;;;;;12.00;6.43;;;;;;;19.66;44.38;102268.84;2072495;28;20029;-71
2021/04/25 03:57:40;;;;;;;12.52;6.50;;;;;;;19.62;44.55;102267.44;2072411;28;20038;-71
2021/04/25 03:58:41;;;;;;;11.52;6.38;;;;;;;19.60;44.57;102264.88;2088080;28;20103;-71
2021/04/25 03:59:41;;;;;;;9.40;6.13;;;;;;;19.58;44.38;102258.75;2088191;28;20116;-71
2021/04/25 04:00:42;;;;;;;13.00;6.70;;;;;;;19.57;44.44;102258.91;2072414;28;20030;-70
2021/04/25 04:01:43;;;;;;;12.85;6.70;;;;;;;19.54;44.53;102260.09;2072507;28;20385;-71
2021/04/25 04:02:43;;;;;;;11.07;6.25;;;;;;;19.55;44.71;102269.09;2071976;28;20022;-71
2021/04/25 04:03:44;;;;;;;10.40;6.55;;;;;;;19.52;44.49;102272.97;2072513;28;20405;-71
2021/04/25 04:04:44;;;;;;;12.05;6.40;;;;;;;19.52;44.53;102265.69;2072485;28;20029;-71
2021/04/25 04:05:45;;;;;;;12.30;6.43;;;;;;;19.50;44.53;102269.56;2072474;28;20080;-71
2021/04/25 04:06:45;;;;;;;11.23;6.32;;;;;;;19.47;44.46;102270.75;2072083;28;20041;-71
2021/04/25 04:07:46;;;;;;;16.60;6.65;;;;;;;19.48;44.41;102271.59;2072275;28;20253;-71
2021/04/25 04:08:47;;;;;;;11.07;6.13;;;;;;;19.45;44.53;102266.47;2072326;28;20022;-71
2021/04/25 04:09:47;;;;;;;11.18;6.80;;;;;;;19.45;44.52;102269.19;2072144;28;20532;-71
2021/04/25 04:10:47;;;;;;;11.60;5.90;;;;;;;19.43;44.63;102269.34;2072334;28;20069;-71
2021/04/25 04:11:48;;;;;;;11.38;5.88;;;;;;;19.42;44.57;102270.34;2072384;28;20033;-71
2021/04/25 04:12:49;;;;;;;11.25;6.65;;;;;;;19.40;44.58;102268.81;2072314;28;20104;-71
2021/04/25 04:13:49;;;;;;;11.15;6.15;;;;;;;19.39;44.53;102270.66;2072492;28;20045;-71
2021/04/25 04:14:50;;;;;;;14.77;6.30;;;;;;;19.39;44.56;102267.97;2072339;28;20508;-71
2021/04/25 04:15:51;;;;;;;10.80;6.00;;;;;;;19.37;44.43;102272.69;2072262;28;20489;-71
2021/04/25 04:16:52;;;;;;;12.43;6.30;;;;;;;19.38;44.71;102265.41;2073898;28;20030;-71
2021/04/25 04:17:52;;;;;;;12.38;6.82;;;;;;;19.37;44.56;102274.56;2073691;28;20030;-71
2021/04/25 04:18:53;;;;;;;12.90;6.10;;;;;;;19.37;44.73;102267.25;2073443;28;20041;-71
2021/04/25 04:19:53;;;;;;;10.52;6.30;;;;;;;19.37;44.63;102269.13;2073359;28;20473;-70
2021/04/25 04:20:54;;;;;;;11.40;5.90;;;;;;;19.37;44.41;102269.13;2073957;28;20038;-71
2021/04/25 04:21:54;;;;;;;10.98;6.30;;;;;;;19.38;44.75;102274.41;2073804;28;20041;-70
2021/04/25 04:22:55;;;;;;;10.65;5.95;;;;;;;19.39;44.58;102275.25;2074007;28;20037;-70
2021/04/25 04:23:55;;;;;;;14.23;6.63;;;;;;;19.38;44.56;102268.13;2073944;28;20049;-71
2021/04/25 04:24:56;;;;;;;15.82;5.85;;;;;;;19.41;44.78;102274.09;2073542;28;20049;-71
2021/04/25 04:25:56;;;;;;;10.52;6.00;;;;;;;19.42;44.65;102269.50;2073909;28;20026;-71
2021/04/25 04:26:57;;;;;;;11.50;5.95;;;;;;;19.43;44.64;102266.63;2074013;28;20030;-71
2021/04/25 04:27:58;;;;;;;13.02;6.47;;;;;;;19.45;44.83;102267.31;2074032;28;20052;-71
2021/04/25 04:28:59;;;;;;;13.40;6.30;;;;;;;19.47;44.70;102270.75;2073928;28;20068;-71
2021/04/25 04:29:59;;;;;;;13.77;6.07;;;;;;;19.46;44.62;102269.03;2073932;28;20092;-71
2021/04/25 04:31:00;;;;;;;10.77;5.90;;;;;;;19.45;44.53;102264.59;2074016;28;20038;-71
2021/04/25 04:32:00;;;;;;;10.98;6.07;;;;;;;19.44;44.71;102270.19;2073452;28;20037;-70
2021/04/25 04:33:01;;;;;;;12.85;6.40;;;;;;;19.42;44.43;102273.06;2073978;28;20032;-70
2021/04/25 04:34:02;;;;;;;12.90;5.93;;;;;;;19.43;44.60;102273.94;2073859;28;20108;-70
2021/04/25 04:35:05;;;;;;;11.38;6.13;;;;;;;19.45;44.65;102271.91;2073941;28;20396;-70
2021/04/25 04:36:06;;;;;;;9.68;5.85;;;;;;;19.48;44.99;102268.88;2073601;28;20026;-70
2021/04/25 04:37:06;;;;;;;10.70;5.95;;;;;;;19.52;44.83;102273.84;2074021;28;20478;-70
2021/04/25 04:38:07;;;;;;;9.18;5.50;;;;;;;19.52;44.63;102278.41;2072952;28;20037;-70
2021/04/25 04:39:07;;;;;;;11.07;5.80;;;;;;;19.50;44.70;102277.72;2073230;28;20041;-70
2021/04/25 04:40:08;;;;;;;11.82;6.28;;;;;;;19.49;44.61;102274.13;2073516;28;20504;-71
2021/04/25 04:41:09;;;;;;;14.50;6.03;;;;;;;19.52;44.74;102281.13;2074004;28;20486;-70
2021/04/25 04:42:09;;;;;;;12.68;6.00;;;;;;;19.51;44.76;102284.84;2073712;28;20036;-70